Time;durP1;ratioP1;P1;durP2;ratioP2;P2;SDS_P1;SDS_P2;PMS_P1;PMS_P2;Temp;Humidity;BMP_temperature;BMP_pressure;BME280_temperature;BME280_humidity;BME280_pressure;Samples;Min_cycle;Max_cycle;Signal;HPM_P1;HPM_P2
2022/07/31 00:02:06;;;;;;;5.05;3.47;;;;;;;22.51;58.26;100289.47;1743250;82;21091;-64
2022/07/31 00:04:36;;;;;;;5.90;3.22;;;;;;;22.51;58.23;100285.28;1739980;82;21467;-64
2022/07/31 00:07:06;;;;;;;5.20;2.90;;;;;;;22.50;57.98;100282.22;1733640;82;21026;-63
2022/07/31 00:09:35;;;;;;;6.05;3.17;;;;;;;22.51;57.77;100277.47;1730189;82;21054;-64
2022/07/31 00:12:07;;;;;;;4.80;3.05;;;;;;;22.52;57.68;100277.74;1727309;82;21060;-64
2022/07/31 00:14:38;;;;;;;5.80;3.10;;;;;;;22.51;57.70;100274.67;1728541;83;21079;-64
2022/07/31 00:17:07;;;;;;;9.25;3.20;;;;;;;22.48;57.74;100273.28;1730336;82;21070;-65
2022/07/31 00:19:36;;;;;;;9.68;3.40;;;;;;;22.45;57.78;100271.88;1718005;83;20991;-65
2022/07/31 00:22:07;;;;;;;6.33;3.45;;;;;;;22.45;57.75;100269.09;1738814;82;21027;-66
2022/07/31 00:24:37;;;;;;;5.10;3.02;;;;;;;22.42;57.46;100262.67;1743767;82;20972;-64
2022/07/31 00:27:09;;;;;;;4.28;2.87;;;;;;;22.42;57.44;100254.85;1744794;82;21079;-64
2022/07/31 00:29:38;;;;;;;7.53;3.10;;;;;;;22.38;57.51;100257.36;1729705;82;21123;-63
2022/07/31 00:32:08;;;;;;;4.35;2.83;;;;;;;22.38;57.45;100255.97;1736506;82;21022;-64
2022/07/31 00:34:37;;;;;;;6.67;3.20;;;;;;;22.37;57.54;100254.85;1730607;82;21019;-65
2022/07/31 00:37:08;;;;;;;3.85;3.00;;;;;;;22.36;57.60;100254.02;1729268;82;21106;-63
2022/07/31 00:39:38;;;;;;;4.87;3.17;;;;;;;22.35;57.67;100257.09;1730084;82;21538;-64
2022/07/31 00:42:21;;;;;;;5.50;3.10;;;;;;;22.32;57.64;100257.09;1736520;82;21063;-64
2022/07/31 00:44:51;;;;;;;3.50;3.00;;;;;;;22.24;57.65;100254.84;1729244;82;21116;-64
2022/07/31 00:47:20;;;;;;;4.90;2.83;;;;;;;22.19;57.85;100252.62;1738736;82;21501;-64
2022/07/31 00:49:51;;;;;;;5.15;2.80;;;;;;;22.14;57.75;100245.08;1738609;82;21019;-63
2022/07/31 00:52:20;;;;;;;3.55;2.83;;;;;;;22.10;57.85;100249.51;1745672;82;21010;-65
2022/07/31 00:54:50;;;;;;;6.10;2.87;;;;;;;22.05;58.02;100253.13;1742148;82;21103;-63
2022/07/31 00:57:20;;;;;;;6.05;2.90;;;;;;;22.04;57.91;100242.25;1739264;82;21066;-64
2022/07/31 00:59:50;;;;;;;6.08;2.83;;;;;;;22.01;57.69;100238.58;1748935;82;21062;-64
2022/07/31 01:02:19;;;;;;;6.33;2.75;;;;;;;22.01;57.54;100249.74;1728452;82;21011;-64
2022/07/31 01:04:48;;;;;;;5.30;2.70;;;;;;;22.01;57.27;100242.77;1738008;82;21054;-64
2022/07/31 01:07:19;;;;;;;4.78;2.75;;;;;;;21.99;57.09;100240.81;1718501;82;21027;-65
2022/07/31 01:09:48;;;;;;;5.22;2.60;;;;;;;21.99;57.05;100247.78;1725748;83;21047;-64
2022/07/31 01:12:26;;;;;;;3.33;2.40;;;;;;;21.98;56.92;100251.14;1724683;82;21079;-64
2022/07/31 01:14:59;;;;;;;4.10;2.75;;;;;;;21.98;56.82;100239.14;1736315;82;21049;-64
2022/07/31 01:17:30;;;;;;;4.25;2.55;;;;;;;21.96;56.72;100242.77;1731359;82;21040;-64
2022/07/31 01:20:00;;;;;;;3.37;2.50;;;;;;;21.94;56.68;100239.41;1722092;82;21035;-66
2022/07/31 01:22:57;;;;;;;4.10;2.50;;;;;;;21.94;56.64;100243.04;1736365;82;21524;-64
2022/07/31 01:26:07;;;;;;;6.90;2.67;;;;;;;21.94;56.44;100240.25;1710881;82;21042;-64
2022/07/31 01:28:50;;;;;;;5.62;2.70;;;;;;;21.92;56.50;100238.84;1728010;82;21019;-64
2022/07/31 01:31:27;;;;;;;4.00;2.27;;;;;;;21.90;56.65;100246.66;1734271;82;21032;-65
2022/07/31 01:34:07;;;;;;;4.75;2.30;;;;;;;21.90;56.64;100241.08;1732180;82;20995;-64
2022/07/31 01:36:41;;;;;;;5.75;2.30;;;;;;;21.88;56.37;100230.20;1715808;82;21063;-63
2022/07/31 01:39:11;;;;;;;7.47;2.75;;;;;;;21.84;56.39;100231.86;1714473;82;20999;-63
2022/07/31 01:41:42;;;;;;;4.33;2.62;;;;;;;21.79;56.45;100235.48;1736780;82;21101;-64
2022/07/31 01:44:11;;;;;;;3.20;2.40;;;;;;;21.79;56.41;100233.25;1736650;82;21066;-65
2022/07/31 01:46:44;;;;;;;5.58;2.22;;;;;;;21.75;56.36;100236.31;1732494;82;21012;-64
2022/07/31 01:49:14;;;;;;;3.87;2.40;;;;;;;21.73;56.37;100233.80;1721475;82;21516;-64
2022/07/31 01:51:48;;;;;;;5.83;2.30;;;;;;;21.73;56.37;100223.20;1716392;82;21058;-64
2022/07/31 01:54:17;;;;;;;3.92;2.22;;;;;;;21.71;56.30;100217.89;1737122;82;21071;-63
2022/07/31 01:56:48;;;;;;;4.60;2.30;;;;;;;21.72;56.19;100222.36;1721988;82;21023;-63
2022/07/31 01:59:18;;;;;;;5.40;2.30;;;;;;;21.70;56.12;100224.59;1732364;82;21471;-63
2022/07/31 02:02:07;;;;;;;2.72;2.10;;;;;;;21.66;56.08;100226.25;1721357;82;21048;-63
2022/07/31 02:04:38;;;;;;;3.52;2.20;;;;;;;21.64;56.13;100230.42;1734793;82;21087;-63
2022/07/31 02:07:10;;;;;;;4.90;2.47;;;;;;;21.65;56.12;100229.31;1735909;82;21450;-65
2022/07/31 02:09:42;;;;;;;6.37;2.80;;;;;;;21.64;56.15;100227.08;1732409;80;21082;-64
2022/07/31 02:12:15;;;;;;;3.40;2.27;;;;;;;21.65;56.14;100225.12;1725648;83;21063;-64
2022/07/31 02:14:47;;;;;;;2.65;2.00;;;;;;;21.59;56.28;100228.47;1732961;83;21114;-63
2022/07/31 02:17:16;;;;;;;3.42;2.10;;;;;;;21.53;56.48;100228.16;1729552;83;21048;-65
2022/07/31 02:19:55;;;;;;;6.35;2.42;;;;;;;21.44;56.74;100233.96;1707676;83;21087;-64
2022/07/31 02:22:28;;;;;;;2.70;2.02;;;;;;;21.41;56.88;100238.13;1722819;83;21063;-64
2022/07/31 02:24:58;;;;;;;4.60;2.62;;;;;;;21.40;57.00;100235.06;1721194;83;21083;-63
2022/07/31 02:27:28;;;;;;;5.85;2.37;;;;;;;21.40;57.06;100233.67;1683980;84;21084;-64
2022/07/31 02:30:01;;;;;;;6.28;3.77;;;;;;;21.41;57.10;100231.72;1692970;83;21174;-64
2022/07/31 02:32:32;;;;;;;5.37;2.75;;;;;;;21.42;57.09;100241.20;1721772;83;21103;-64
2022/07/31 02:35:01;;;;;;;3.17;2.22;;;;;;;21.41;56.99;100236.73;1721133;83;21055;-63
2022/07/31 02:37:31;;;;;;;3.52;2.30;;;;;;;21.40;57.00;100235.62;1725300;83;21078;-64
2022/07/31 02:40:00;;;;;;;2.37;2.00;;;;;;;21.37;56.96;100236.16;1705418;83;21023;-63
2022/07/31 02:42:29;;;;;;;4.45;2.17;;;;;;;21.34;56.93;100239.50;1726155;83;21087;-64
2022/07/31 02:44:59;;;;;;;5.35;2.20;;;;;;;21.33;56.73;100242.00;1725776;83;21055;-64
2022/07/31 02:47:28;;;;;;;3.47;2.20;;;;;;;21.32;56.71;100244.51;1693214;83;21063;-65
2022/07/31 02:49:59;;;;;;;2.95;2.00;;;;;;;21.29;56.69;100244.50;1727962;83;21044;-64
2022/07/31 02:52:30;;;;;;;3.45;2.25;;;;;;;21.28;56.80;100247.55;1728330;83;21031;-64
2022/07/31 02:55:00;;;;;;;2.75;2.30;;;;;;;21.27;56.89;100253.69;1727325;82;21533;-64
2022/07/31 02:57:30;;;;;;;4.60;2.17;;;;;;;21.28;56.87;100247.55;1725055;83;21051;-64
2022/07/31 02:59:59;;;;;;;9.00;2.10;;;;;;;21.28;56.77;100253.13;1722636;83;21070;-64
2022/07/31 03:02:30;;;;;;;4.12;2.00;;;;;;;21.28;56.80;100247.55;1728808;83;21451;-63
2022/07/31 03:05:02;;;;;;;5.67;2.08;;;;;;;21.27;56.83;100250.90;1727058;83;21056;-65
2022/07/31 03:07:32;;;;;;;4.62;2.42;;;;;;;21.27;56.72;100252.30;1729601;83;21455;-64
2022/07/31 03:10:02;;;;;;;3.27;1.90;;;;;;;21.25;56.70;100248.10;1727280;82;21142;-64
2022/07/31 03:12:42;;;;;;;3.92;2.12;;;;;;;21.21;56.51;100250.56;1715645;83;21052;-65
2022/07/31 03:15:15;;;;;;;6.53;2.00;;;;;;;21.18;56.50;100243.58;1722010;83;21079;-64
2022/07/31 03:17:44;;;;;;;4.33;2.10;;;;;;;21.14;55.89;100247.18;1730838;83;21020;-64
2022/07/31 03:20:16;;;;;;;4.10;1.90;;;;;;;21.10;55.89;100244.10;1733378;83;21471;-63
2022/07/31 03:22:46;;;;;;;3.55;1.87;;;;;;;21.10;56.00;100255.80;1724469;83;21052;-64
2022/07/31 03:25:15;;;;;;;5.28;1.98;;;;;;;21.09;56.11;100255.52;1726374;83;21443;-65
2022/07/31 03:27:47;;;;;;;2.98;1.72;;;;;;;21.11;56.08;100263.05;1729250;83;21047;-65
2022/07/31 03:30:23;;;;;;;4.10;1.90;;;;;;;21.15;55.75;100263.63;1731389;83;21075;-66
2022/07/31 03:32:54;;;;;;;1.77;1.60;;;;;;;21.17;55.48;100255.84;1726037;83;21020;-63
2022/07/31 03:35:26;;;;;;;2.70;1.87;;;;;;;21.19;55.29;100256.41;1720452;83;21071;-63
2022/07/31 03:37:55;;;;;;;2.90;1.72;;;;;;;21.23;54.91;100256.73;1726111;83;21031;-63
2022/07/31 03:40:25;;;;;;;3.40;2.30;;;;;;;21.25;54.54;100255.06;1728177;82;21102;-64
2022/07/31 03:42:54;;;;;;;2.27;1.70;;;;;;;21.26;54.47;100251.17;1728653;83;21016;-62
2022/07/31 03:45:23;;;;;;;4.20;1.57;;;;;;;21.30;54.08;100246.17;1727391;82;21075;-64
2022/07/31 03:47:54;;;;;;;4.62;1.80;;;;;;;21.35;53.72;100249.53;1730380;83;21016;-64
2022/07/31 03:50:23;;;;;;;3.22;1.75;;;;;;;21.36;53.48;100249.27;1727552;83;21450;-64
2022/07/31 03:52:52;;;;;;;3.72;1.45;;;;;;;21.39;53.11;100243.70;1720392;83;21018;-64
2022/07/31 03:55:22;;;;;;;3.77;1.60;;;;;;;21.44;52.98;100237.59;1727624;83;21027;-65
2022/07/31 03:57:51;;;;;;;4.87;1.70;;;;;;;21.50;52.74;100238.47;1730715;82;21142;-64
2022/07/31 04:00:26;;;;;;;3.65;1.87;;;;;;;21.53;52.63;100235.69;1721272;83;21053;-63
2022/07/31 04:02:57;;;;;;;3.35;1.65;;;;;;;21.60;52.47;100247.42;1692460;83;21047;-64
2022/07/31 04:05:38;;;;;;;6.03;1.62;;;;;;;21.63;52.41;100239.34;1706540;82;21079;-64
2022/07/31 04:08:09;;;;;;;4.92;1.47;;;;;;;21.67;52.22;100239.63;1731428;83;21016;-64
2022/07/31 04:10:38;;;;;;;5.97;1.60;;;;;;;21.69;52.22;100239.64;1720666;83;21179;-63
2022/07/31 04:13:11;;;;;;;2.90;1.60;;;;;;;21.74;52.23;100238.27;1730628;82;21047;-63
2022/07/31 04:15:42;;;;;;;3.75;1.50;;;;;;;21.80;52.08;100243.30;1725084;82;21023;-64
2022/07/31 04:18:11;;;;;;;2.72;1.60;;;;;;;21.82;52.07;100239.11;1727630;82;21569;-64
2022/07/31 04:20:43;;;;;;;1.72;1.50;;;;;;;21.86;52.00;100235.22;1732572;82;21011;-63
2022/07/31 04:23:12;;;;;;;3.12;1.50;;;;;;;21.87;51.94;100233.27;1730390;82;21067;-64
2022/07/31 04:25:56;;;;;;;3.10;1.55;;;;;;;21.88;52.09;100238.56;1733181;82;21025;-64
2022/07/31 04:28:38;;;;;;;1.65;1.50;;;;;;;21.91;52.08;100234.39;1736326;82;21039;-64
2022/07/31 04:31:07;;;;;;;3.30;1.67;;;;;;;21.93;52.14;100241.92;1731503;82;21003;-64
2022/07/31 04:33:38;;;;;;;2.77;1.50;;;;;;;21.96;52.21;100242.77;1688190;85;21555;-64
2022/07/31 04:36:10;;;;;;;5.92;1.80;;;;;;;22.02;52.16;100237.47;1728102;82;21050;-64
2022/07/31 04:38:43;;;;;;;5.20;1.37;;;;;;;22.06;52.21;100237.22;1732622;82;21007;-65
2022/07/31 04:41:12;;;;;;;2.85;1.60;;;;;;;22.12;52.16;100237.55;1727876;82;21019;-65
2022/07/31 04:43:42;;;;;;;5.03;1.70;;;;;;;22.17;52.18;100243.13;1724620;82;21075;-63
2022/07/31 04:46:11;;;;;;;4.22;1.50;;;;;;;22.20;52.19;100241.17;1728229;82;21459;-64
2022/07/31 04:48:42;;;;;;;4.72;1.60;;;;;;;22.27;52.06;100244.52;1725587;82;21052;-66
2022/07/31 04:51:18;;;;;;;3.12;1.30;;;;;;;22.34;51.98;100241.45;1736223;82;21198;-65
2022/07/31 04:53:49;;;;;;;4.08;1.42;;;;;;;22.40;51.88;100246.75;1725379;82;21125;-65
2022/07/31 04:56:32;;;;;;;3.08;1.50;;;;;;;22.46;51.76;100241.45;1729084;82;21023;-64
2022/07/31 04:59:05;;;;;;;3.10;1.50;;;;;;;22.52;51.54;100243.67;1733013;82;21059;-65
2022/07/31 05:01:35;;;;;;;3.08;1.70;;;;;;;22.62;51.23;100247.02;1721783;82;21068;-64
2022/07/31 05:04:06;;;;;;;2.77;1.70;;;;;;;22.69;51.26;100244.22;1721284;82;21113;-64
2022/07/31 05:06:39;;;;;;;4.22;1.45;;;;;;;22.80;51.40;100245.09;1740893;82;21027;-65
2022/07/31 05:09:15;;;;;;;2.30;1.70;;;;;;;22.90;51.17;100237.25;1702818;82;21051;-65
2022/07/31 05:11:47;;;;;;;2.25;1.60;;;;;;;22.96;51.09;100235.55;1745025;80;21031;-65
2022/07/31 05:14:19;;;;;;;3.70;1.80;;;;;;;23.03;51.05;100237.48;1737596;82;21019;-65
2022/07/31 05:16:49;;;;;;;2.42;1.47;;;;;;;23.11;50.79;100233.83;1736974;82;21072;-64
2022/07/31 05:19:18;;;;;;;3.37;1.40;;;;;;;23.18;50.47;100233.80;1721192;82;21071;-64
2022/07/31 05:22:03;;;;;;;3.72;1.67;;;;;;;23.23;50.33;100230.99;1732842;82;21063;-65
2022/07/31 05:24:53;;;;;;;3.22;1.55;;;;;;;23.35;50.18;100223.67;1736865;82;21031;-64
2022/07/31 05:27:24;;;;;;;4.37;1.60;;;;;;;23.45;49.71;100223.66;1689091;83;21060;-64
2022/07/31 05:29:55;;;;;;;6.08;2.00;;;;;;;23.49;49.80;100219.72;1722085;82;21100;-66
2022/07/31 05:32:26;;;;;;;2.52;1.62;;;;;;;23.60;49.78;100226.40;1727026;82;21459;-65
2022/07/31 05:34:56;;;;;;;2.15;1.60;;;;;;;23.82;49.50;100225.15;1738144;82;21068;-65
2022/07/31 05:37:25;;;;;;;6.17;1.60;;;;;;;24.05;48.82;100223.02;1720840;82;21056;-64
2022/07/31 05:39:55;;;;;;;2.80;1.55;;;;;;;24.30;48.60;100234.08;1741689;82;21031;-65
2022/07/31 05:42:43;;;;;;;3.60;1.82;;;;;;;24.55;47.78;100234.42;1730278;82;21078;-65
2022/07/31 05:45:16;;;;;;;7.12;2.30;;;;;;;24.78;47.27;100232.83;1721545;82;21080;-64
2022/07/31 05:47:47;;;;;;;4.72;2.05;;;;;;;25.02;46.58;100238.48;1721892;82;21494;-65
2022/07/31 05:50:17;;;;;;;4.80;1.77;;;;;;;25.22;46.05;100243.02;1723826;82;21048;-64
2022/07/31 05:52:52;;;;;;;5.67;1.80;;;;;;;25.38;45.70;100238.08;1729529;82;21080;-63
2022/07/31 05:55:21;;;;;;;4.35;1.80;;;;;;;25.54;45.35;100241.80;1722661;82;21107;-65
2022/07/31 05:57:59;;;;;;;2.20;1.70;;;;;;;25.74;44.60;100234.26;1690467;82;21048;-64
2022/07/31 06:00:29;;;;;;;5.87;1.77;;;;;;;25.84;44.02;100234.94;1725767;82;21119;-65
2022/07/31 06:03:01;;;;;;;4.25;1.50;;;;;;;25.95;43.65;100240.41;1727829;82;21035;-66
2022/07/31 06:05:50;;;;;;;6.67;1.62;;;;;;;25.99;43.15;100240.06;1656834;86;21086;-65
2022/07/31 06:08:21;;;;;;;4.80;1.77;;;;;;;26.04;43.17;100234.40;1654177;86;21460;-64
2022/07/31 06:10:50;;;;;;;2.62;1.60;;;;;;;26.14;42.95;100235.64;1679570;82;21061;-64
2022/07/31 06:13:26;;;;;;;3.27;1.70;;;;;;;26.28;42.92;100242.15;1719415;83;21053;-64
2022/07/31 06:15:56;;;;;;;2.70;1.40;;;;;;;26.46;42.36;100236.27;1723036;83;21015;-63
2022/07/31 06:18:26;;;;;;;3.65;1.40;;;;;;;26.56;41.60;100238.89;1723806;83;21099;-65
2022/07/31 06:20:57;;;;;;;2.75;1.50;;;;;;;26.65;41.17;100231.42;1719993;83;21068;-65
2022/07/31 06:23:26;;;;;;;2.08;1.50;;;;;;;26.73;41.12;100232.15;1729656;83;21016;-64
2022/07/31 06:25:59;;;;;;;4.08;1.35;;;;;;;26.85;40.90;100228.27;1717541;83;21106;-63
2022/07/31 06:28:30;;;;;;;2.92;1.75;;;;;;;26.95;40.71;100224.42;1718472;83;21144;-63
2022/07/31 06:31:02;;;;;;;4.33;1.50;;;;;;;27.08;40.44;100226.44;1709697;83;21053;-64
2022/07/31 06:33:32;;;;;;;2.83;1.30;;;;;;;27.29;39.95;100226.86;1720469;83;21055;-64
2022/07/31 06:36:04;;;;;;;2.05;1.35;;;;;;;27.52;39.83;100224.16;1731441;83;20980;-64
2022/07/31 06:38:36;;;;;;;4.78;1.40;;;;;;;27.66;39.72;100222.18;1714953;83;21159;-66
2022/07/31 06:44:25;;;;;;;2.60;1.50;;;;;;;28.02;38.60;100218.82;1641623;86;21035;-64
2022/07/31 06:47:14;;;;;;;1.90;1.30;;;;;;;28.32;37.86;100210.22;1632105;87;21131;-64
2022/07/31 06:50:06;;;;;;;4.03;1.40;;;;;;;28.55;37.57;100199.75;1630924;87;21016;-63
2022/07/31 06:52:40;;;;;;;3.58;1.27;;;;;;;28.77;37.38;100195.26;1644365;86;21059;-64
2022/07/31 06:55:09;;;;;;;4.12;1.70;;;;;;;28.99;36.62;100197.47;1629784;87;21660;-63
2022/07/31 06:57:41;;;;;;;3.95;1.70;;;;;;;29.11;36.43;100201.08;1645166;87;21087;-65
2022/07/31 07:00:12;;;;;;;3.83;1.55;;;;;;;29.19;36.29;100200.28;1629718;87;21085;-64
2022/07/31 07:02:43;;;;;;;3.98;1.52;;;;;;;29.37;35.91;100196.13;1638400;85;21566;-64
2022/07/31 07:05:14;;;;;;;5.58;1.80;;;;;;;29.56;34.82;100188.22;1643604;87;21047;-63
2022/07/31 07:07:47;;;;;;;15.50;2.98;;;;;;;29.71;34.49;100189.16;1638384;87;21155;-64
2022/07/31 07:10:16;;;;;;;10.50;2.10;;;;;;;29.85;34.29;100184.18;1639571;87;21107;-62
2022/07/31 07:13:03;;;;;;;3.85;1.77;;;;;;;29.97;34.19;100190.61;1641332;87;21519;-62
2022/07/31 07:15:34;;;;;;;4.62;1.52;;;;;;;30.12;34.20;100187.89;1690277;83;21066;-64
2022/07/31 07:18:04;;;;;;;2.92;1.40;;;;;;;30.35;33.81;100192.19;1700245;83;21108;-65
2022/07/31 07:20:38;;;;;;;1.42;1.20;;;;;;;30.65;33.47;100183.86;1716156;83;21031;-64
2022/07/31 07:23:07;;;;;;;3.85;1.22;;;;;;;30.83;32.72;100186.88;1711781;83;21062;-64
2022/07/31 07:25:42;;;;;;;3.65;1.55;;;;;;;30.84;32.55;100178.64;1704719;83;21059;-64
2022/07/31 07:28:13;;;;;;;4.22;1.52;;;;;;;30.86;32.36;100176.30;1711897;83;21125;-63
2022/07/31 07:30:46;;;;;;;5.42;1.30;;;;;;;30.94;32.38;100171.77;1712610;83;21023;-64
2022/07/31 07:33:16;;;;;;;2.77;1.32;;;;;;;31.13;31.87;100170.77;1700353;83;21086;-63
2022/07/31 07:35:47;;;;;;;2.70;1.30;;;;;;;31.30;31.54;100181.22;1708187;83;21078;-64
2022/07/31 07:38:18;;;;;;;3.77;1.30;;;;;;;31.51;30.81;100183.50;1712038;83;21572;-64
2022/07/31 07:40:48;;;;;;;3.75;1.20;;;;;;;31.64;29.85;100171.08;1705841;83;21075;-66
2022/07/31 07:43:18;;;;;;;3.98;1.40;;;;;;;31.70;29.67;100184.48;1703347;83;21086;-64
2022/07/31 07:45:50;;;;;;;3.55;1.30;;;;;;;31.75;29.62;100178.03;1721389;83;21063;-65
2022/07/31 07:48:20;;;;;;;2.37;1.12;;;;;;;31.72;29.62;100174.47;1712858;83;21004;-64
2022/07/31 07:51:08;;;;;;;3.72;1.40;;;;;;;31.75;29.72;100170.94;1708092;83;21102;-64
2022/07/31 07:53:45;;;;;;;1.60;1.40;;;;;;;31.88;29.78;100172.45;1668739;83;21035;-64
2022/07/31 07:56:15;;;;;;;4.12;1.35;;;;;;;31.90;29.66;100174.36;1717242;83;21051;-65
2022/07/31 07:58:47;;;;;;;4.42;1.30;;;;;;;31.89;29.84;100174.12;1703774;83;21098;-64
2022/07/31 08:01:22;;;;;;;4.03;1.50;;;;;;;31.95;29.68;100174.98;1708211;83;21454;-64
2022/07/31 08:03:53;;;;;;;3.47;1.15;;;;;;;32.01;29.70;100164.26;1709329;83;21098;-65
2022/07/31 08:06:23;;;;;;;3.90;1.20;;;;;;;32.13;29.10;100167.14;1700673;83;21102;-64
2022/07/31 08:08:54;;;;;;;3.15;1.50;;;;;;;32.11;29.13;100162.41;1706972;83;21016;-65
2022/07/31 08:11:41;;;;;;;2.72;1.10;;;;;;;32.19;29.49;100162.92;1692816;82;21103;-63
2022/07/31 08:14:12;;;;;;;3.08;1.25;;;;;;;32.32;29.26;100157.56;1726204;83;21049;-65
2022/07/31 08:17:02;;;;;;;2.27;1.25;;;;;;;32.31;29.61;100166.41;1726145;83;21027;-64
2022/07/31 08:19:31;;;;;;;4.15;1.40;;;;;;;32.32;29.83;100165.23;1724827;82;21116;-64
2022/07/31 08:22:02;;;;;;;5.60;2.02;;;;;;;32.32;29.94;100162.41;1725312;83;21051;-66
2022/07/31 08:24:32;;;;;;;2.42;1.57;;;;;;;32.38;30.03;100161.83;1710469;82;21076;-67
2022/07/31 08:29:55;;;;;;;2.60;1.35;;;;;;;32.40;29.91;100160.89;1722308;83;21051;-65
2022/07/31 08:32:25;;;;;;;3.85;1.40;;;;;;;32.37;29.44;100154.50;1722048;83;20988;-66
2022/07/31 08:35:07;;;;;;;2.22;1.17;;;;;;;32.40;29.42;100158.06;1725583;83;20993;-65
2022/07/31 08:37:37;;;;;;;3.35;1.42;;;;;;;32.46;29.43;100150.16;1728118;82;21047;-67
2022/07/31 08:40:09;;;;;;;2.75;1.30;;;;;;;32.63;29.23;100157.08;1721019;83;21108;-67
2022/07/31 08:42:39;;;;;;;1.90;1.20;;;;;;;32.69;28.82;100148.58;1727443;82;21044;-68
2022/07/31 08:45:09;;;;;;;2.70;1.25;;;;;;;32.77;28.49;100143.98;1731047;83;21063;-67
2022/07/31 08:47:45;;;;;;;3.12;1.50;;;;;;;32.73;28.46;100143.02;1723994;83;21063;-67
2022/07/31 08:50:17;;;;;;;2.22;1.20;;;;;;;32.76;28.43;100136.05;1733903;83;21107;-67
2022/07/31 08:52:48;;;;;;;2.35;1.32;;;;;;;32.89;28.23;100136.09;1720752;83;21023;-68
2022/07/31 08:55:19;;;;;;;2.12;1.32;;;;;;;32.99;28.16;100129.36;1718751;83;21068;-68
2022/07/31 08:57:50;;;;;;;2.80;1.30;;;;;;;33.02;27.80;100127.22;1638392;85;21142;-69
2022/07/31 09:00:21;;;;;;;2.00;1.15;;;;;;;32.94;27.90;100128.17;1713589;83;21059;-69
2022/07/31 09:02:53;;;;;;;3.22;1.40;;;;;;;32.97;27.80;100125.22;1721675;83;21020;-68
2022/07/31 09:05:27;;;;;;;2.47;1.42;;;;;;;32.98;27.74;100122.02;1720406;83;21040;-67
2022/07/31 09:07:58;;;;;;;3.67;1.30;;;;;;;32.99;27.69;100119.42;1719697;83;21331;-67
2022/07/31 09:10:29;;;;;;;5.50;1.50;;;;;;;32.92;27.79;100114.09;1723521;83;21148;-68
2022/07/31 09:13:02;;;;;;;4.05;1.40;;;;;;;32.96;27.60;100107.95;1665041;85;21146;-68
2022/07/31 09:15:33;;;;;;;3.87;1.27;;;;;;;32.95;27.65;100111.97;1640199;86;21078;-67
2022/07/31 09:18:03;;;;;;;4.30;1.30;;;;;;;32.87;27.80;100102.98;1663783;86;21050;-67
2022/07/31 09:20:34;;;;;;;2.25;1.00;;;;;;;32.65;28.00;100097.97;1633625;86;21056;-68
2022/07/31 09:23:10;;;;;;;2.37;1.35;;;;;;;32.44;28.17;100100.86;1659658;86;21117;-66
2022/07/31 09:25:58;;;;;;;2.62;1.27;;;;;;;32.33;28.06;100101.67;1660192;86;21124;-68
2022/07/31 09:28:44;;;;;;;3.60;1.32;;;;;;;32.23;28.31;100100.67;1666990;86;21077;-69
2022/07/31 09:31:15;;;;;;;1.98;1.52;;;;;;;32.12;28.43;100103.12;1651041;86;21104;-70
2022/07/31 09:33:57;;;;;;;3.42;1.40;;;;;;;32.01;28.19;100102.73;1658668;86;21090;-68
2022/07/31 09:36:42;;;;;;;1.87;1.15;;;;;;;31.89;28.03;100098.43;1669560;83;21123;-69
2022/07/31 09:39:29;;;;;;;4.20;1.40;;;;;;;31.70;28.28;100105.16;1728960;83;21035;-69
2022/07/31 09:42:20;;;;;;;2.50;1.17;;;;;;;31.39;28.72;100094.22;1717382;83;21079;-68
2022/07/31 09:44:55;;;;;;;1.92;1.20;;;;;;;31.33;28.85;100099.25;1709619;83;21016;-68
2022/07/31 09:47:30;;;;;;;4.95;1.55;;;;;;;31.23;28.83;100103.08;1730523;83;21040;-69
2022/07/31 09:50:03;;;;;;;6.50;1.10;;;;;;;31.08;28.91;100090.28;1725889;83;21533;-69
2022/07/31 09:52:33;;;;;;;4.85;1.62;;;;;;;30.98;29.14;100087.85;1726757;83;21012;-69
2022/07/31 09:55:11;;;;;;;1.77;1.30;;;;;;;30.89;29.21;100092.15;1727974;83;21082;-67
2022/07/31 09:57:57;;;;;;;3.67;1.45;;;;;;;30.83;29.21;100088.68;1723703;83;21040;-69
2022/07/31 10:00:28;;;;;;;4.05;1.30;;;;;;;30.81;29.17;100083.12;1720645;83;21035;-69
2022/07/31 10:02:58;;;;;;;3.40;1.20;;;;;;;30.81;29.30;100080.30;1726135;83;21123;-70
2022/07/31 10:05:30;;;;;;;5.35;1.40;;;;;;;30.81;29.02;100085.95;1722570;83;21027;-71
2022/07/31 10:08:02;;;;;;;3.17;1.20;;;;;;;30.80;29.19;100081.46;1720395;83;21095;-71
2022/07/31 10:10:49;;;;;;;3.08;1.47;;;;;;;30.83;29.14;100076.53;1723822;83;21424;-68
2022/07/31 10:13:26;;;;;;;4.15;1.37;;;;;;;30.81;28.70;100074.63;1707756;83;21065;-70
2022/07/31 10:15:58;;;;;;;4.90;1.40;;;;;;;30.78;28.95;100071.91;1715797;83;21010;-70
2022/07/31 10:18:48;;;;;;;5.35;1.47;;;;;;;30.72;29.19;100069.02;1715458;83;21016;-69
2022/07/31 10:21:23;;;;;;;4.45;1.37;;;;;;;30.60;29.61;100063.26;1708288;83;21368;-70
2022/07/31 10:23:54;;;;;;;3.33;1.52;;;;;;;30.61;29.43;100059.84;1714373;83;21104;-69
2022/07/31 10:26:25;;;;;;;4.55;1.20;;;;;;;30.67;29.77;100058.48;1715549;83;21104;-70
2022/07/31 10:28:56;;;;;;;1.95;1.20;;;;;;;30.69;29.56;100058.39;1710511;82;21119;-70
2022/07/31 10:31:26;;;;;;;3.17;1.67;;;;;;;30.71;28.79;100052.39;1708258;83;21442;-69
2022/07/31 10:33:56;;;;;;;3.47;1.72;;;;;;;30.73;29.58;100059.36;1715381;83;21097;-69
2022/07/31 10:36:45;;;;;;;3.65;1.47;;;;;;;30.72;29.65;100052.05;1681227;83;21061;-69
2022/07/31 10:39:39;;;;;;;3.27;1.37;;;;;;;30.73;29.04;100049.47;1677467;83;21025;-69
2022/07/31 10:42:54;;;;;;;6.37;1.50;;;;;;;30.66;29.14;100056.23;1715841;83;21092;-69
2022/07/31 10:45:23;;;;;;;3.95;1.20;;;;;;;30.56;29.39;100047.52;1711803;83;21104;-70
2022/07/31 10:47:59;;;;;;;1.75;1.35;;;;;;;30.52;29.08;100050.75;1715131;83;21089;-68
2022/07/31 10:50:47;;;;;;;4.33;1.60;;;;;;;30.46;28.34;100045.05;1707526;83;21018;-68
2022/07/31 10:53:18;;;;;;;6.28;1.50;;;;;;;30.41;27.98;100044.41;1714103;83;21057;-72
2022/07/31 10:56:09;;;;;;;1.90;1.60;;;;;;;30.43;28.19;100044.31;1679001;84;21025;-71
2022/07/31 10:58:57;;;;;;;4.28;1.92;;;;;;;30.44;29.04;100040.89;1701032;83;22047;-70
2022/07/31 11:01:28;;;;;;;4.28;1.57;;;;;;;30.47;28.88;100033.98;1697354;83;21506;-68
2022/07/31 11:04:10;;;;;;;5.72;1.90;;;;;;;30.49;28.49;100033.05;1715048;83;21096;-70
2022/07/31 11:06:49;;;;;;;6.95;2.00;;;;;;;30.49;27.99;100025.98;1703255;83;21042;-70
2022/07/31 11:09:26;;;;;;;2.37;1.57;;;;;;;30.43;28.33;100030.76;1714379;83;21077;-69
2022/07/31 11:11:57;;;;;;;6.30;2.00;;;;;;;30.42;28.66;100030.52;1705668;83;21635;-69
2022/07/31 11:14:40;;;;;;;5.30;2.20;;;;;;;30.43;28.78;100021.69;1725237;82;21054;-69
2022/07/31 11:17:16;;;;;;;5.75;1.82;;;;;;;30.46;28.87;100022.42;1721573;83;21089;-69
2022/07/31 11:19:51;;;;;;;3.60;1.52;;;;;;;30.49;28.80;100020.33;1713142;83;21538;-70
2022/07/31 11:22:20;;;;;;;5.30;1.80;;;;;;;30.44;29.02;100012.04;1725083;83;21052;-71
2022/07/31 11:24:55;;;;;;;2.85;1.72;;;;;;;30.42;29.18;100013.55;1723021;83;21070;-68
2022/07/31 11:27:31;;;;;;;4.35;2.02;;;;;;;30.45;28.99;100010.04;1725425;83;21052;-70
2022/07/31 11:30:05;;;;;;;3.40;1.50;;;;;;;30.47;28.97;100009.11;1725249;83;21014;-70
2022/07/31 11:32:36;;;;;;;3.42;1.70;;;;;;;30.37;29.19;100005.25;1725477;82;21524;-70
2022/07/31 11:35:07;;;;;;;2.70;1.90;;;;;;;30.24;29.34;100005.14;1725415;83;22158;-70
2022/07/31 11:37:37;;;;;;;5.03;1.70;;;;;;;30.18;29.71;100005.67;1725461;83;20983;-67
2022/07/31 11:40:09;;;;;;;5.25;1.60;;;;;;;30.18;29.92;100002.84;1723507;81;21076;-71
2022/07/31 11:42:44;;;;;;;4.17;1.55;;;;;;;30.17;29.59;100002.59;1722361;81;21099;-71
2022/07/31 11:45:16;;;;;;;3.33;1.60;;;;;;;30.12;29.86;100002.78;1721808;83;21043;-70
2022/07/31 11:47:46;;;;;;;4.33;1.60;;;;;;;30.02;30.11;99999.74;1724987;83;21048;-70
2022/07/31 11:50:18;;;;;;;3.25;1.72;;;;;;;30.02;30.11;99999.74;1688273;84;21094;-71
2022/07/31 11:52:47;;;;;;;2.62;1.55;;;;;;;30.04;30.09;99993.17;1725191;83;21046;-70
2022/07/31 11:55:18;;;;;;;4.08;1.82;;;;;;;30.05;30.24;99986.94;1725248;83;21022;-70
2022/07/31 11:57:47;;;;;;;4.10;1.50;;;;;;;30.07;30.09;99997.31;1725266;82;21060;-69
2022/07/31 12:00:20;;;;;;;3.52;1.57;;;;;;;30.10;30.19;99995.23;1725193;83;21030;-69